createdAt,value
2023-02-18T00:02:04.098Z,100.00
2023-02-18T00:04:33.997Z,100.00
2023-02-18T00:07:04.505Z,100.00
2023-02-18T00:09:33.638Z,100.00
2023-02-18T00:12:02.635Z,100.00
2023-02-18T00:14:31.805Z,100.00
2023-02-18T00:17:00.782Z,100.00
2023-02-18T00:19:29.946Z,100.00
2023-02-18T00:21:59.345Z,100.00
2023-02-18T00:24:29.808Z,100.00
2023-02-18T00:26:58.834Z,100.00
2023-02-18T00:29:27.728Z,100.00
2023-02-18T00:31:56.907Z,100.00
2023-02-18T00:34:26.192Z,100.00
2023-02-18T00:36:55.911Z,100.00
2023-02-18T00:39:25.075Z,100.00
2023-02-18T00:41:55.450Z,100.00
2023-02-18T00:44:24.450Z,100.00
2023-02-18T00:46:53.670Z,100.00
2023-02-18T00:49:22.726Z,100.00
2023-02-18T00:51:51.987Z,100.00
2023-02-18T00:54:20.910Z,100.00
2023-02-18T00:56:51.507Z,100.00
2023-02-18T00:59:22.091Z,100.00
2023-02-18T01:01:51.047Z,100.00
2023-02-18T01:04:20.033Z,100.00
2023-02-18T01:06:50.249Z,100.00
2023-02-18T01:09:19.234Z,100.00
2023-02-18T01:11:48.396Z,100.00
2023-02-18T01:14:17.486Z,100.00
2023-02-18T01:16:47.935Z,100.00
2023-02-18T01:19:16.940Z,100.00
2023-02-18T01:21:46.120Z,100.00
2023-02-18T01:24:16.942Z,100.00
2023-02-18T01:26:45.954Z,100.00
2023-02-18T01:29:15.125Z,100.00
2023-02-18T01:31:44.351Z,100.00
2023-02-18T01:34:15.414Z,100.00
2023-02-18T01:36:44.449Z,100.00
2023-02-18T01:39:13.447Z,100.00
2023-02-18T01:41:42.461Z,100.00
2023-02-18T01:44:13.972Z,100.00
2023-02-18T01:46:43.031Z,100.00
2023-02-18T01:49:16.080Z,100.00
2023-02-18T01:51:49.825Z,100.00
2023-02-18T01:54:24.569Z,100.00
2023-02-18T01:57:00.485Z,100.00
2023-02-18T01:59:32.949Z,100.00
2023-02-18T02:02:02.358Z,100.00
2023-02-18T02:04:33.360Z,100.00
2023-02-18T02:07:02.824Z,100.00
2023-02-18T02:09:33.939Z,100.00
2023-02-18T02:12:27.118Z,100.00
2023-02-18T02:15:15.762Z,100.00
2023-02-18T02:17:56.797Z,100.00
2023-02-18T02:20:55.581Z,100.00
2023-02-18T02:23:51.960Z,100.00
2023-02-18T02:26:50.648Z,100.00
2023-02-18T02:29:51.845Z,100.00
2023-02-18T02:32:43.017Z,100.00
2023-02-18T02:35:22.038Z,100.00
2023-02-18T02:37:57.916Z,100.00
2023-02-18T02:40:35.475Z,100.00
2023-02-18T02:43:15.188Z,100.00
2023-02-18T02:45:56.084Z,100.00
2023-02-18T02:48:34.677Z,100.00
2023-02-18T02:51:12.547Z,100.00
2023-02-18T02:53:43.551Z,100.00
2023-02-18T02:56:16.917Z,100.00
2023-02-18T02:58:47.418Z,100.00
2023-02-18T03:01:35.679Z,100.00
2023-02-18T03:04:33.532Z,100.00
2023-02-18T03:07:39.755Z,100.00
2023-02-18T03:10:27.178Z,100.00
2023-02-18T03:13:06.363Z,100.00
2023-02-18T03:15:44.394Z,100.00
2023-02-18T03:18:20.518Z,100.00
2023-02-18T03:20:54.209Z,100.00
2023-02-18T03:23:28.696Z,100.00
2023-02-18T03:25:59.873Z,100.00
2023-02-18T03:28:32.831Z,100.00
2023-02-18T03:31:07.375Z,100.00
2023-02-18T03:33:41.016Z,100.00
2023-02-18T03:36:12.903Z,100.00
2023-02-18T03:38:48.281Z,100.00
2023-02-18T03:41:17.312Z,100.00
2023-02-18T03:43:51.739Z,100.00
2023-02-18T03:46:21.333Z,100.00
2023-02-18T03:48:50.388Z,100.00
2023-02-18T03:51:19.909Z,100.00
2023-02-18T03:53:50.647Z,100.00
2023-02-18T03:56:19.782Z,100.00
2023-02-18T03:58:48.997Z,100.00
2023-02-18T04:01:18.497Z,100.00
2023-02-18T04:03:47.585Z,100.00
2023-02-18T04:06:16.666Z,100.00
2023-02-18T04:08:46.076Z,100.00
2023-02-18T04:11:16.435Z,100.00
2023-02-18T04:13:45.581Z,100.00
2023-02-18T04:16:14.947Z,100.00
2023-02-18T04:18:44.033Z,100.00
2023-02-18T04:21:13.562Z,100.00
2023-02-18T04:23:42.610Z,100.00
2023-02-18T04:26:11.674Z,100.00
2023-02-18T04:28:42.149Z,100.00
2023-02-18T04:31:12.010Z,100.00
2023-02-18T04:33:41.123Z,100.00
2023-02-18T04:36:10.849Z,100.00
2023-02-18T04:38:40.230Z,100.00
2023-02-18T04:41:09.257Z,100.00
2023-02-18T04:43:38.266Z,100.00
2023-02-18T04:46:11.814Z,100.00
2023-02-18T04:48:41.158Z,100.00
2023-02-18T04:51:10.376Z,100.00
2023-02-18T04:53:39.457Z,100.00
2023-02-18T04:56:08.890Z,100.00
2023-02-18T04:58:38.066Z,100.00
2023-02-18T05:01:07.694Z,100.00
2023-02-18T05:03:38.275Z,100.00
2023-02-18T05:06:08.160Z,100.00
2023-02-18T05:08:37.308Z,100.00
2023-02-18T05:11:08.624Z,100.00
2023-02-18T05:13:37.658Z,100.00
2023-02-18T05:16:07.405Z,100.00
2023-02-18T05:18:38.115Z,100.00
2023-02-18T05:21:07.679Z,100.00
2023-02-18T05:23:36.806Z,100.00
2023-02-18T05:26:06.349Z,100.00
2023-02-18T05:28:35.737Z,100.00
2023-02-18T05:31:04.964Z,100.00
2023-02-18T05:33:34.026Z,100.00
2023-02-18T05:36:04.580Z,100.00
2023-02-18T05:38:33.611Z,100.00
2023-02-18T05:41:02.629Z,100.00
2023-02-18T05:43:51.865Z,100.00
2023-02-18T05:46:21.020Z,100.00
2023-02-18T05:48:50.073Z,100.00
2023-02-18T05:51:20.528Z,100.00
2023-02-18T05:53:49.618Z,100.00
2023-02-18T05:56:19.050Z,100.00
2023-02-18T05:58:48.036Z,100.00
2023-02-18T06:01:17.045Z,100.00
2023-02-18T06:03:46.274Z,100.00
2023-02-18T06:06:15.292Z,100.00
2023-02-18T06:08:45.847Z,100.00
2023-02-18T06:11:14.769Z,100.00
2023-02-18T06:13:43.805Z,100.00
2023-02-18T06:16:12.892Z,100.00
2023-02-18T06:18:42.171Z,100.00
2023-02-18T06:21:11.307Z,100.00
2023-02-18T06:23:40.466Z,100.00
2023-02-18T06:26:11.229Z,100.00
2023-02-18T06:28:40.784Z,100.00
2023-02-18T06:31:09.975Z,100.00
2023-02-18T06:33:39.014Z,100.00
2023-02-18T06:36:12.021Z,100.00
2023-02-18T06:38:41.319Z,100.00
2023-02-18T06:41:12.691Z,100.00
2023-02-18T06:43:41.997Z,100.00
2023-02-18T06:46:11.487Z,100.00
2023-02-18T06:48:40.747Z,100.00
2023-02-18T06:51:09.964Z,100.00
2023-02-18T06:53:39.051Z,100.00
2023-02-18T06:56:08.561Z,100.00
2023-02-18T06:58:39.535Z,100.00
2023-02-18T07:01:08.822Z,100.00
2023-02-18T07:03:37.830Z,100.00
2023-02-18T07:06:07.678Z,100.00
2023-02-18T07:11:20.636Z,100.00
2023-02-18T07:13:50.995Z,100.00
2023-02-18T07:16:19.866Z,100.00
2023-02-18T07:18:48.816Z,100.00
2023-02-18T07:21:17.686Z,100.00
2023-02-18T07:23:46.563Z,100.00
2023-02-18T07:26:16.267Z,100.00
2023-02-18T07:28:45.388Z,100.00
2023-02-18T07:31:15.992Z,100.00
2023-02-18T07:33:45.085Z,100.00
2023-02-18T07:36:14.130Z,100.00
2023-02-18T07:38:43.276Z,100.00
2023-02-18T07:41:21.841Z,100.00
2023-02-18T07:43:51.652Z,100.00
2023-02-18T07:46:22.070Z,100.00
2023-02-18T07:48:51.138Z,98.18
2023-02-18T07:51:20.162Z,96.97
2023-02-18T07:53:49.402Z,92.65
2023-02-18T07:56:18.885Z,88.85
2023-02-18T07:58:48.025Z,89.54
2023-02-18T08:01:17.587Z,86.95
2023-02-18T08:03:48.246Z,87.50
2023-02-18T08:06:23.822Z,87.59
2023-02-18T08:08:52.732Z,87.41
2023-02-18T08:11:21.821Z,87.34
2023-02-18T08:13:50.928Z,84.58
2023-02-18T08:16:23.341Z,84.94
2023-02-18T08:18:54.557Z,86.84
2023-02-18T08:21:25.391Z,85.79
2023-02-18T08:23:54.822Z,86.26
2023-02-18T08:26:23.880Z,85.55
2023-02-18T08:28:52.813Z,83.85
2023-02-18T08:31:23.716Z,77.12
2023-02-18T08:33:55.108Z,76.24
2023-02-18T08:36:24.776Z,74.31
2023-02-18T08:38:53.895Z,72.84
2023-02-18T08:41:23.082Z,72.15
2023-02-18T08:43:52.118Z,68.05
2023-02-18T08:46:27.278Z,67.03
2023-02-18T08:49:07.229Z,68.74
2023-02-18T08:51:36.679Z,65.21
2023-02-18T08:54:05.955Z,61.80
2023-02-18T08:56:34.942Z,57.79
2023-02-18T08:59:04.130Z,57.30
2023-02-18T09:01:33.719Z,56.99
2023-02-18T09:04:03.091Z,53.89
2023-02-18T09:06:33.817Z,52.52
2023-02-18T09:09:02.847Z,50.64
2023-02-18T09:11:34.076Z,49.27
2023-02-18T09:14:03.293Z,48.57
2023-02-18T09:16:32.371Z,47.33
2023-02-18T09:19:01.555Z,45.77
2023-02-18T09:21:30.890Z,43.04
2023-02-18T09:24:02.116Z,42.26
2023-02-18T09:26:31.283Z,41.51
2023-02-18T09:29:00.717Z,41.13
2023-02-18T09:31:30.657Z,39.86
2023-02-18T09:34:01.345Z,38.82
2023-02-18T09:36:31.492Z,38.09
2023-02-18T09:39:02.367Z,38.59
2023-02-18T09:41:41.154Z,39.14
2023-02-18T09:44:15.446Z,38.82
2023-02-18T09:46:50.797Z,38.79
2023-02-18T09:49:25.062Z,37.63
2023-02-18T09:51:55.551Z,37.27
2023-02-18T09:54:26.336Z,37.79
2023-02-18T09:56:56.039Z,36.91
2023-02-18T09:59:28.014Z,35.71
2023-02-18T10:01:57.374Z,37.29
2023-02-18T10:04:32.496Z,36.79
2023-02-18T10:07:03.908Z,37.56
2023-02-18T10:09:36.849Z,38.35
2023-02-18T10:12:16.007Z,39.20
2023-02-18T10:14:48.493Z,38.24
2023-02-18T10:17:19.759Z,38.85
2023-02-18T10:19:51.062Z,37.94
2023-02-18T10:22:21.870Z,37.85
2023-02-18T10:24:55.157Z,38.86
2023-02-18T10:27:27.524Z,38.24
2023-02-18T10:29:57.799Z,38.20
2023-02-18T10:32:32.937Z,38.80
2023-02-18T10:35:14.453Z,38.86
2023-02-18T10:37:55.778Z,39.59
2023-02-18T10:40:37.198Z,40.11
2023-02-18T10:43:18.111Z,40.73
2023-02-18T10:45:54.332Z,40.59
2023-02-18T10:48:45.453Z,41.05
2023-02-18T10:51:21.132Z,40.74
2023-02-18T10:53:53.333Z,40.57
2023-02-18T10:56:43.837Z,41.55
2023-02-18T10:59:15.472Z,40.46
2023-02-18T11:01:45.541Z,41.63
2023-02-18T11:04:17.991Z,42.05
2023-02-18T11:06:49.598Z,40.94
2023-02-18T11:09:29.407Z,40.25
2023-02-18T11:12:08.611Z,40.61
2023-02-18T11:14:44.582Z,40.47
2023-02-18T11:17:23.156Z,40.10
2023-02-18T11:19:58.279Z,39.75
2023-02-18T11:22:31.240Z,38.88
2023-02-18T11:25:02.268Z,39.12
2023-02-18T11:27:43.755Z,38.55
2023-02-18T11:30:21.532Z,37.29
2023-02-18T11:32:52.558Z,38.31
2023-02-18T11:35:24.092Z,37.20
2023-02-18T11:37:53.838Z,37.43
2023-02-18T11:40:26.011Z,37.77
2023-02-18T11:43:06.215Z,38.17
2023-02-18T11:45:36.274Z,38.14
2023-02-18T11:48:10.394Z,38.49
2023-02-18T11:50:39.322Z,38.82
2023-02-18T11:53:30.234Z,38.75
2023-02-18T11:56:01.830Z,38.49
2023-02-18T11:58:40.034Z,38.09
2023-02-18T12:01:16.266Z,37.83
2023-02-18T12:03:54.431Z,38.38
2023-02-18T12:06:29.669Z,38.54
2023-02-18T12:09:02.523Z,38.91
2023-02-18T12:11:36.145Z,38.32
2023-02-18T12:14:17.287Z,37.94
2023-02-18T12:17:01.423Z,37.56
2023-02-18T12:19:51.302Z,38.29
2023-02-18T12:22:30.077Z,38.58
2023-02-18T12:25:15.466Z,37.91
2023-02-18T12:27:56.746Z,38.62
2023-02-18T12:30:47.138Z,39.20
2023-02-18T12:33:26.710Z,38.19
2023-02-18T12:36:08.749Z,38.76
2023-02-18T12:39:12.898Z,38.78
2023-02-18T12:42:15.209Z,38.86
2023-02-18T12:45:05.358Z,37.98
2023-02-18T12:48:06.399Z,38.76
2023-02-18T12:50:51.794Z,38.46
2023-02-18T12:53:35.274Z,38.66
2023-02-18T12:56:22.460Z,39.08
2023-02-18T12:59:03.932Z,39.80
2023-02-18T13:01:41.236Z,39.23
2023-02-18T13:04:46.816Z,40.30
2023-02-18T13:07:51.638Z,39.55
2023-02-18T13:10:46.210Z,40.26
2023-02-18T13:13:20.910Z,40.57
2023-02-18T13:15:54.293Z,39.54
2023-02-18T13:18:29.642Z,40.01
2023-02-18T13:21:05.395Z,39.68
2023-02-18T13:23:38.314Z,40.01
2023-02-18T13:26:11.452Z,41.02
2023-02-18T13:28:47.604Z,41.34
2023-02-18T13:31:28.766Z,41.83
2023-02-18T13:34:05.744Z,42.05
2023-02-18T13:36:48.958Z,41.88
2023-02-18T13:39:21.411Z,41.99
2023-02-18T13:41:52.354Z,41.97
2023-02-18T13:45:03.350Z,42.00
2023-02-18T13:47:40.394Z,42.67
2023-02-18T13:50:25.796Z,43.22
2023-02-18T13:53:14.912Z,43.32
2023-02-18T13:55:52.713Z,43.68
2023-02-18T13:58:25.859Z,43.61
2023-02-18T14:01:00.448Z,43.41
2023-02-18T14:03:53.774Z,44.30
2023-02-18T14:06:24.711Z,44.57
2023-02-18T14:09:06.368Z,44.13
2023-02-18T14:11:51.290Z,44.33
2023-02-18T14:14:41.074Z,44.69
2023-02-18T14:17:40.316Z,44.70
2023-02-18T14:20:48.400Z,44.21
2023-02-18T14:23:46.869Z,44.24
2023-02-18T14:26:26.546Z,43.50
2023-02-18T14:29:00.176Z,44.01
2023-02-18T14:31:45.658Z,44.12
2023-02-18T14:34:49.938Z,44.28
2023-02-18T14:37:45.166Z,43.64
2023-02-18T14:40:39.792Z,44.40
2023-02-18T14:43:22.210Z,43.55
2023-02-18T14:46:05.059Z,43.77
2023-02-18T14:49:27.972Z,43.67
2023-02-18T14:51:59.615Z,43.67
2023-02-18T14:54:31.545Z,44.26
2023-02-18T14:57:03.695Z,43.58
2023-02-18T14:59:39.075Z,44.19
2023-02-18T15:02:20.164Z,43.76
2023-02-18T15:04:50.845Z,44.15
2023-02-18T15:07:22.355Z,45.35
2023-02-18T15:09:54.962Z,44.31
2023-02-18T15:12:26.843Z,44.27
2023-02-18T15:15:04.662Z,43.93
2023-02-18T15:17:34.292Z,44.27
2023-02-18T15:20:09.202Z,44.58
2023-02-18T15:22:38.516Z,45.36
2023-02-18T15:25:08.457Z,45.81
2023-02-18T15:27:42.419Z,46.72
2023-02-18T15:30:21.133Z,46.59
2023-02-18T15:32:53.621Z,47.21
2023-02-18T15:35:24.647Z,47.80
2023-02-18T15:37:56.184Z,48.08
2023-02-18T15:40:27.479Z,47.33
2023-02-18T15:42:59.521Z,47.25
2023-02-18T15:45:35.515Z,47.04
2023-02-18T15:48:06.154Z,47.51
2023-02-18T15:50:39.119Z,48.01
2023-02-18T15:53:11.484Z,48.89
2023-02-18T15:55:43.400Z,50.01
2023-02-18T15:58:16.007Z,51.59
2023-02-18T16:00:51.477Z,53.73
2023-02-18T16:03:25.040Z,54.15
2023-02-18T16:06:10.971Z,54.94
2023-02-18T16:08:41.467Z,57.07
2023-02-18T16:11:14.358Z,57.05
2023-02-18T16:13:48.803Z,57.11
2023-02-18T16:16:26.754Z,58.18
2023-02-18T16:18:56.072Z,58.93
2023-02-18T16:21:31.208Z,59.00
2023-02-18T16:24:02.134Z,59.94
2023-02-18T16:26:33.998Z,59.90
2023-02-18T16:29:14.172Z,62.35
2023-02-18T16:31:45.119Z,63.10
2023-02-18T16:34:14.346Z,62.02
2023-02-18T16:37:03.851Z,62.05
2023-02-18T16:39:35.964Z,61.95
2023-02-18T16:42:05.174Z,62.88
2023-02-18T16:44:35.258Z,62.87
2023-02-18T16:47:06.122Z,66.36
2023-02-18T16:49:36.377Z,66.96
2023-02-18T16:52:10.098Z,69.84
2023-02-18T16:54:39.300Z,71.65
2023-02-18T16:57:08.444Z,72.41
2023-02-18T16:59:37.468Z,74.07
2023-02-18T17:02:17.965Z,74.10
2023-02-18T17:04:47.270Z,74.84
2023-02-18T17:07:16.386Z,75.28
2023-02-18T17:09:45.555Z,74.73
2023-02-18T17:12:14.754Z,75.41
2023-02-18T17:14:44.027Z,76.51
2023-02-18T17:17:15.131Z,76.37
2023-02-18T17:19:44.131Z,74.55
2023-02-18T17:22:15.543Z,73.56
2023-02-18T17:24:44.649Z,73.66
2023-02-18T17:27:13.676Z,75.28
2023-02-18T17:29:42.777Z,74.38
2023-02-18T17:32:15.521Z,75.25
2023-02-18T17:34:44.649Z,76.61
2023-02-18T17:37:14.698Z,77.95
2023-02-18T17:39:43.808Z,78.49
2023-02-18T17:42:14.927Z,78.94
2023-02-18T17:44:44.094Z,79.72
2023-02-18T17:47:14.859Z,80.62
2023-02-18T17:49:44.108Z,81.46
2023-02-18T17:52:30.975Z,82.26
2023-02-18T17:55:00.079Z,82.82
2023-02-18T17:57:29.227Z,83.75
2023-02-18T17:59:58.511Z,83.38
2023-02-18T18:02:30.178Z,85.11
2023-02-18T18:04:59.259Z,84.73
2023-02-18T18:07:28.288Z,84.06
2023-02-18T18:09:57.500Z,86.49
2023-02-18T18:12:31.030Z,87.79
2023-02-18T18:15:01.951Z,88.82
2023-02-18T18:17:33.536Z,87.26
2023-02-18T18:20:02.646Z,87.04
2023-02-18T18:22:32.353Z,84.71
2023-02-18T18:25:01.382Z,84.70
2023-02-18T18:27:32.251Z,84.01
2023-02-18T18:30:01.431Z,85.00
2023-02-18T18:32:33.535Z,86.74
2023-02-18T18:35:02.780Z,89.63
2023-02-18T18:37:32.238Z,89.54
2023-02-18T18:40:01.259Z,90.46
2023-02-18T18:42:30.495Z,91.00
2023-02-18T18:44:59.695Z,91.48
2023-02-18T18:47:28.868Z,92.01
2023-02-18T18:49:59.372Z,92.19
2023-02-18T18:52:28.574Z,91.28
2023-02-18T18:54:57.525Z,92.01
2023-02-18T18:57:27.651Z,91.56
2023-02-18T18:59:56.712Z,92.39
2023-02-18T19:02:25.698Z,92.73
2023-02-18T19:04:54.771Z,94.45
2023-02-18T19:07:25.353Z,98.25
2023-02-18T19:09:54.385Z,97.08
2023-02-18T19:12:23.478Z,97.56
2023-02-18T19:14:52.628Z,98.17
2023-02-18T19:17:21.564Z,97.99
2023-02-18T19:19:50.653Z,97.51
2023-02-18T19:22:19.656Z,96.86
2023-02-18T19:24:50.060Z,96.99
2023-02-18T19:27:19.192Z,96.97
2023-02-18T19:29:50.613Z,97.22
2023-02-18T19:32:19.769Z,98.15
2023-02-18T19:34:49.009Z,99.42
2023-02-18T19:37:18.262Z,100.00
2023-02-18T19:39:47.465Z,99.94
2023-02-18T19:42:18.174Z,100.00
2023-02-18T19:44:47.492Z,100.00
2023-02-18T19:47:16.572Z,100.00
2023-02-18T19:49:45.787Z,100.00
2023-02-18T19:52:15.105Z,100.00
2023-02-18T19:54:44.112Z,100.00
2023-02-18T19:57:14.050Z,100.00
2023-02-18T19:59:45.144Z,100.00
2023-02-18T20:02:16.492Z,100.00
2023-02-18T20:04:45.906Z,100.00
2023-02-18T20:07:15.547Z,100.00
2023-02-18T20:09:44.639Z,100.00
2023-02-18T20:12:14.037Z,100.00
2023-02-18T20:14:44.866Z,100.00
2023-02-18T20:17:14.184Z,100.00
2023-02-18T20:19:43.248Z,100.00
2023-02-18T20:22:12.272Z,100.00
2023-02-18T20:24:42.331Z,100.00
2023-02-18T20:27:12.203Z,100.00
2023-02-18T20:29:41.489Z,100.00
2023-02-18T20:32:12.201Z,100.00
2023-02-18T20:34:41.326Z,100.00
2023-02-18T20:37:10.420Z,100.00
2023-02-18T20:39:39.750Z,100.00
2023-02-18T20:42:16.436Z,100.00
2023-02-18T20:44:45.998Z,100.00
2023-02-18T20:47:16.594Z,100.00
2023-02-18T20:49:46.978Z,100.00
2023-02-18T20:52:16.119Z,100.00
2023-02-18T20:54:45.274Z,100.00
2023-02-18T20:57:14.339Z,100.00
2023-02-18T20:59:43.282Z,100.00
2023-02-18T21:02:13.973Z,100.00
2023-02-18T21:04:45.230Z,100.00
2023-02-18T21:07:14.460Z,100.00
2023-02-18T21:09:43.478Z,100.00
2023-02-18T21:12:12.583Z,100.00
2023-02-18T21:14:41.730Z,100.00
2023-02-18T21:17:10.796Z,100.00
2023-02-18T21:19:39.823Z,100.00
2023-02-18T21:22:10.324Z,100.00
2023-02-18T21:24:39.502Z,100.00
2023-02-18T21:27:08.537Z,100.00
2023-02-18T21:29:37.634Z,100.00
2023-02-18T21:32:07.823Z,100.00
2023-02-18T21:34:36.916Z,100.00
2023-02-18T21:37:05.893Z,100.00
2023-02-18T21:39:36.502Z,100.00
2023-02-18T21:42:07.001Z,100.00
2023-02-18T21:44:42.188Z,100.00
2023-02-18T21:47:12.982Z,100.00
2023-02-18T21:49:41.960Z,100.00
2023-02-18T21:52:11.105Z,100.00
2023-02-18T21:54:44.828Z,100.00
2023-02-18T21:57:16.205Z,100.00
2023-02-18T21:59:45.701Z,100.00
2023-02-18T22:02:19.084Z,100.00
2023-02-18T22:04:49.112Z,100.00
2023-02-18T22:07:19.477Z,100.00
2023-02-18T22:09:50.922Z,100.00
2023-02-18T22:12:20.063Z,100.00
2023-02-18T22:14:49.237Z,100.00
2023-02-18T22:17:19.808Z,100.00
2023-02-18T22:19:49.778Z,100.00
2023-02-18T22:22:19.225Z,100.00
2023-02-18T22:24:51.395Z,100.00
2023-02-18T22:27:20.841Z,100.00
2023-02-18T22:29:49.986Z,100.00
2023-02-18T22:32:19.230Z,100.00
2023-02-18T22:34:48.402Z,100.00
2023-02-18T22:37:17.391Z,100.00
2023-02-18T22:39:46.331Z,100.00
2023-02-18T22:42:16.713Z,100.00
2023-02-18T22:44:45.661Z,100.00
2023-02-18T22:47:14.623Z,100.00
2023-02-18T22:49:43.663Z,100.00
2023-02-18T22:52:12.805Z,100.00
2023-02-18T22:54:41.882Z,100.00
2023-02-18T22:57:10.827Z,100.00
2023-02-18T22:59:41.787Z,100.00
2023-02-18T23:02:10.923Z,100.00
2023-02-18T23:04:42.007Z,100.00
2023-02-18T23:07:11.104Z,100.00
2023-02-18T23:09:40.357Z,100.00
2023-02-18T23:12:09.602Z,100.00
2023-02-18T23:14:38.697Z,100.00
2023-02-18T23:17:16.816Z,100.00
2023-02-18T23:19:47.255Z,100.00
2023-02-18T23:22:18.354Z,100.00
2023-02-18T23:24:49.799Z,100.00
2023-02-18T23:27:19.538Z,100.00
2023-02-18T23:29:48.803Z,100.00
2023-02-18T23:32:19.765Z,100.00
2023-02-18T23:34:50.495Z,100.00
2023-02-18T23:37:39.576Z,100.00
2023-02-18T23:40:09.820Z,100.00
2023-02-18T23:42:38.780Z,100.00
2023-02-18T23:45:08.227Z,100.00
2023-02-18T23:47:38.785Z,100.00
2023-02-18T23:50:08.606Z,100.00
2023-02-18T23:52:37.912Z,100.00
2023-02-18T23:55:07.513Z,100.00
2023-02-18T23:57:36.713Z,100.00
